Greenfield, New York
Current Conditions -  °F | °C
As of 8:02 PM on Saturday 22 Nov 2014 (Local Time) from KGFL Reporting Station
Overcast Overcast  
Wind Chill: 28°   Ceiling: 2800
Heat Index: 36°   Visibility: 10mi
Dew Point: 20°   Wind: 12mph
Humidity: 52%   Direction: 200°SSW
Pressure: 30.05"   Gusts: NA
Location:  43.1447°N, 73.8492°W
Report Text: KGFL 230102Z AUTO 20010KT 10SM OVC028 02/M07 A3005 RMK AO2 T00221067
Loading
Personal Weather Stations






























Interactive Weather Map New forecast layout! Learn more

10-Day Weather Forecast

Advertisements
Track Severe Weather on mobile